createdAt,value
2022-08-17T00:01:22.683Z,7.03
2022-08-17T00:03:53.143Z,7.70
2022-08-17T00:06:24.339Z,8.07
2022-08-17T00:08:50.723Z,7.40
2022-08-17T00:11:18.736Z,7.63
2022-08-17T00:13:49.153Z,7.80
2022-08-17T00:16:51.001Z,7.37
2022-08-17T00:19:11.930Z,7.33
2022-08-17T00:22:31.890Z,7.63
2022-08-17T00:24:26.096Z,7.60
2022-08-17T00:26:52.480Z,7.90
2022-08-17T00:29:19.931Z,7.80
2022-08-17T00:31:46.769Z,7.13
2022-08-17T00:34:13.164Z,8.20
2022-08-17T00:36:39.559Z,7.43
2022-08-17T00:39:05.975Z,8.03
2022-08-17T00:41:32.426Z,7.60
2022-08-17T00:44:00.557Z,7.43
2022-08-17T00:46:31.486Z,8.33
2022-08-17T00:48:58.057Z,7.83
2022-08-17T00:51:37.110Z,8.13
2022-08-17T00:54:18.741Z,8.03
2022-08-17T00:56:51.520Z,7.80
2022-08-17T00:59:19.692Z,7.70
2022-08-17T01:01:47.779Z,7.50
2022-08-17T01:04:15.080Z,7.97
2022-08-17T01:06:42.520Z,7.70
2022-08-17T01:09:09.073Z,8.00
2022-08-17T01:11:40.519Z,8.50
2022-08-17T01:14:08.868Z,8.13
2022-08-17T01:16:35.842Z,8.13
2022-08-17T01:19:05.114Z,8.17
2022-08-17T01:21:36.497Z,8.10
2022-08-17T01:24:03.338Z,8.37
2022-08-17T01:26:30.465Z,7.90
2022-08-17T01:28:56.940Z,7.77
2022-08-17T01:31:24.583Z,7.90
2022-08-17T01:33:51.153Z,7.97
2022-08-17T01:36:17.612Z,8.70
2022-08-17T01:38:44.019Z,7.90
2022-08-17T01:41:12.507Z,7.93
2022-08-17T01:43:55.195Z,7.17
2022-08-17T01:46:24.118Z,8.50
2022-08-17T01:48:51.422Z,8.10
2022-08-17T01:51:17.818Z,8.47
2022-08-17T01:53:47.258Z,8.53
2022-08-17T01:56:16.199Z,8.73
2022-08-17T01:58:43.261Z,8.43
2022-08-17T02:01:10.367Z,8.30
2022-08-17T02:03:37.496Z,8.07
2022-08-17T02:06:05.398Z,8.13
2022-08-17T02:08:39.318Z,8.63
2022-08-17T02:11:22.211Z,8.20
2022-08-17T02:14:02.372Z,8.90
2022-08-17T02:16:29.470Z,8.00
2022-08-17T02:19:06.147Z,8.10
2022-08-17T02:21:32.570Z,8.40
2022-08-17T02:23:59.220Z,8.80
2022-08-17T02:26:26.519Z,8.27
2022-08-17T02:28:53.562Z,8.60
2022-08-17T02:31:21.208Z,8.17
2022-08-17T02:33:47.649Z,8.03
2022-08-17T02:36:29.950Z,8.77
2022-08-17T02:42:22.314Z,8.60
2022-08-17T02:44:48.699Z,8.20
2022-08-17T02:47:15.091Z,7.90
2022-08-17T02:49:44.117Z,8.13
2022-08-17T02:52:43.388Z,8.27
2022-08-17T02:55:09.947Z,8.03
2022-08-17T02:57:37.071Z,8.60
2022-08-17T03:00:12.007Z,8.83
2022-08-17T03:02:42.114Z,8.43
2022-08-17T03:05:09.539Z,8.53
2022-08-17T03:07:37.425Z,8.23
2022-08-17T03:10:04.795Z,8.27
2022-08-17T03:12:35.039Z,8.60
2022-08-17T03:15:08.670Z,8.47
2022-08-17T03:17:35.241Z,8.77
2022-08-17T03:20:01.951Z,8.70
2022-08-17T03:22:36.035Z,8.40
2022-08-17T03:25:05.203Z,8.87
2022-08-17T03:27:37.142Z,8.87
2022-08-17T03:30:07.388Z,9.80
2022-08-17T03:32:38.375Z,9.40
2022-08-17T03:35:04.992Z,8.87
2022-08-17T03:37:31.415Z,9.13
2022-08-17T03:39:57.835Z,8.70
2022-08-17T03:42:32.134Z,8.80
2022-08-17T03:45:00.214Z,8.73
2022-08-17T03:47:44.996Z,8.83
2022-08-17T03:50:30.096Z,8.37
2022-08-17T03:53:14.848Z,8.10
2022-08-17T03:55:59.855Z,8.67
2022-08-17T03:58:26.310Z,9.30
2022-08-17T04:00:52.972Z,8.87
2022-08-17T04:03:19.396Z,8.30
2022-08-17T04:05:45.793Z,8.83
2022-08-17T04:08:12.319Z,8.53
2022-08-17T04:10:44.786Z,8.20
2022-08-17T04:13:12.216Z,8.77
2022-08-17T04:15:38.623Z,8.10
2022-08-17T04:18:07.281Z,9.30
2022-08-17T04:20:34.056Z,8.87
2022-08-17T04:23:09.959Z,8.47
2022-08-17T04:25:38.019Z,8.43
2022-08-17T04:28:05.149Z,8.30
2022-08-17T04:30:36.747Z,8.80
2022-08-17T04:33:11.061Z,9.23
2022-08-17T04:35:39.162Z,8.97
2022-08-17T04:38:06.750Z,8.83
2022-08-17T04:40:52.022Z,9.10
2022-08-17T04:43:20.337Z,9.53
2022-08-17T04:45:55.373Z,9.80
2022-08-17T04:48:23.226Z,10.10
2022-08-17T04:50:54.452Z,9.00
2022-08-17T04:53:21.740Z,8.70
2022-08-17T04:55:48.229Z,8.00
2022-08-17T04:58:14.720Z,8.87
2022-08-17T05:00:41.134Z,8.03
2022-08-17T05:03:07.589Z,8.43
2022-08-17T05:05:37.913Z,8.70
2022-08-17T05:08:05.644Z,8.30
2022-08-17T05:10:33.583Z,8.20
2022-08-17T05:13:01.297Z,8.50
2022-08-17T05:15:28.201Z,8.40
2022-08-17T05:17:54.822Z,8.43
2022-08-17T05:20:21.688Z,9.60
2022-08-17T05:22:52.169Z,8.80
2022-08-17T05:25:25.528Z,8.07
2022-08-17T05:27:53.171Z,9.10
2022-08-17T05:30:19.642Z,8.37
2022-08-17T05:32:59.878Z,8.00
2022-08-17T05:35:27.127Z,8.27
2022-08-17T05:37:53.665Z,8.50
2022-08-17T05:40:23.555Z,8.93
2022-08-17T05:42:50.194Z,8.50
2022-08-17T05:45:19.056Z,9.07
2022-08-17T05:48:05.274Z,9.20
2022-08-17T05:50:36.670Z,8.93
2022-08-17T05:53:12.183Z,8.50
2022-08-17T05:55:56.439Z,9.00
2022-08-17T05:58:26.330Z,7.13
2022-08-17T06:00:52.867Z,7.87
2022-08-17T06:03:29.849Z,7.97
2022-08-17T06:05:56.235Z,8.07
2022-08-17T06:08:22.589Z,8.53
2022-08-17T06:11:06.465Z,8.90
2022-08-17T06:13:45.159Z,7.93
2022-08-17T06:16:33.116Z,9.20
2022-08-17T06:19:02.473Z,8.87
2022-08-17T06:21:33.315Z,8.67
2022-08-17T06:24:05.378Z,9.17
2022-08-17T06:26:39.603Z,8.23
2022-08-17T06:29:27.480Z,7.73
2022-08-17T06:31:53.867Z,8.67
2022-08-17T06:34:20.838Z,9.27
2022-08-17T06:36:48.216Z,8.97
2022-08-17T06:39:33.156Z,8.90
2022-08-17T06:43:02.570Z,8.73
2022-08-17T06:45:08.092Z,9.10
2022-08-17T06:47:43.544Z,8.57
2022-08-17T06:50:22.240Z,8.67
2022-08-17T06:52:52.719Z,7.77
2022-08-17T06:55:35.812Z,8.57
2022-08-17T06:58:15.954Z,8.60
2022-08-17T07:00:44.406Z,8.17
2022-08-17T07:03:23.040Z,7.90
2022-08-17T07:06:02.571Z,8.53
2022-08-17T07:08:42.376Z,8.20
2022-08-17T07:11:12.949Z,8.40
2022-08-17T07:13:54.095Z,8.73
2022-08-17T07:16:31.291Z,9.20
2022-08-17T07:18:58.918Z,8.80
2022-08-17T07:21:26.694Z,9.27
2022-08-17T07:24:01.194Z,8.93
2022-08-17T07:26:27.986Z,8.23
2022-08-17T07:28:56.168Z,8.23
2022-08-17T07:31:23.698Z,8.57
2022-08-17T07:34:06.680Z,8.33
2022-08-17T07:36:34.123Z,7.93
2022-08-17T07:39:02.087Z,8.23
2022-08-17T07:41:53.486Z,8.90
2022-08-17T07:44:17.266Z,8.40
2022-08-17T07:47:07.335Z,7.97
2022-08-17T07:49:38.378Z,8.37
2022-08-17T07:52:24.937Z,8.30
2022-08-17T07:54:53.021Z,7.53
2022-08-17T07:57:20.065Z,7.97
2022-08-17T08:00:01.780Z,7.70
2022-08-17T08:02:40.527Z,7.47
2022-08-17T08:05:29.908Z,8.27
2022-08-17T08:08:26.643Z,8.00
2022-08-17T08:11:05.470Z,7.47
2022-08-17T08:13:32.397Z,7.17
2022-08-17T08:16:17.248Z,7.63
2022-08-17T08:18:56.817Z,7.07
2022-08-17T08:21:32.733Z,7.03
2022-08-17T08:23:59.590Z,6.50
2022-08-17T08:26:40.592Z,6.43
2022-08-17T08:29:08.263Z,6.53
2022-08-17T08:31:56.226Z,6.63
2022-08-17T08:34:58.654Z,7.50
2022-08-17T08:37:35.570Z,6.70
2022-08-17T08:40:22.612Z,7.33
2022-08-17T08:42:52.330Z,6.87
2022-08-17T08:45:28.430Z,6.20
2022-08-17T08:48:05.910Z,5.90
2022-08-17T08:50:49.072Z,6.23
2022-08-17T08:53:21.186Z,6.30
2022-08-17T08:55:53.693Z,5.57
2022-08-17T08:58:41.291Z,4.97
2022-08-17T09:01:24.574Z,5.90
2022-08-17T09:03:54.094Z,5.17
2022-08-17T09:06:39.060Z,5.10
2022-08-17T09:09:06.421Z,5.10
2022-08-17T09:12:02.362Z,4.60
2022-08-17T09:14:43.060Z,5.20
2022-08-17T09:17:21.422Z,5.03
2022-08-17T09:19:56.447Z,4.87
2022-08-17T09:22:34.571Z,5.00
2022-08-17T09:25:12.507Z,5.00
2022-08-17T09:27:48.179Z,5.03
2022-08-17T09:30:14.913Z,5.37
2022-08-17T09:32:44.008Z,5.20
2022-08-17T09:35:19.788Z,4.83
2022-08-17T09:38:05.115Z,5.03
2022-08-17T09:40:48.546Z,4.63
2022-08-17T09:43:22.017Z,5.00
2022-08-17T09:45:54.047Z,4.70
2022-08-17T09:48:29.399Z,5.30
2022-08-17T09:51:06.941Z,5.30
2022-08-17T09:53:35.839Z,5.17
2022-08-17T09:56:02.236Z,5.60
2022-08-17T09:59:03.869Z,5.30
2022-08-17T10:01:36.824Z,5.30
2022-08-17T10:04:29.634Z,5.23
2022-08-17T10:07:07.146Z,4.80
2022-08-17T10:09:39.958Z,5.30
2022-08-17T10:12:17.297Z,5.00
2022-08-17T10:14:57.612Z,5.73
2022-08-17T10:17:50.699Z,4.87
2022-08-17T10:20:23.234Z,4.63
2022-08-17T10:23:20.823Z,5.20
2022-08-17T10:26:04.520Z,5.70
2022-08-17T10:28:40.580Z,5.47
2022-08-17T10:34:14.385Z,5.50
2022-08-17T10:36:55.571Z,5.20
2022-08-17T10:39:36.179Z,5.03
2022-08-17T10:42:30.430Z,4.73
2022-08-17T10:45:02.891Z,5.20
2022-08-17T10:47:55.606Z,5.20
2022-08-17T10:50:43.017Z,5.23
2022-08-17T10:53:09.666Z,5.93
2022-08-17T10:55:36.137Z,5.07
2022-08-17T10:58:32.130Z,4.70
2022-08-17T11:00:58.892Z,5.03
2022-08-17T11:03:25.531Z,5.10
2022-08-17T11:06:14.163Z,5.03
2022-08-17T11:08:57.459Z,4.63
2022-08-17T11:11:23.834Z,5.13
2022-08-17T11:14:10.972Z,5.00
2022-08-17T11:17:01.015Z,4.93
2022-08-17T11:19:39.619Z,5.03
2022-08-17T11:22:21.596Z,4.63
2022-08-17T11:24:51.225Z,4.40
2022-08-17T11:27:28.613Z,4.80
2022-08-17T11:30:02.283Z,4.90
2022-08-17T11:32:29.193Z,4.63
2022-08-17T11:35:11.870Z,4.20
2022-08-17T11:37:46.487Z,4.83
2022-08-17T11:40:15.702Z,4.70
2022-08-17T11:42:49.362Z,4.50
2022-08-17T11:45:31.599Z,4.90
2022-08-17T11:48:37.813Z,4.60
2022-08-17T11:51:32.841Z,4.03
2022-08-17T11:54:21.437Z,4.07
2022-08-17T11:56:50.194Z,3.20
2022-08-17T11:59:32.686Z,3.83
2022-08-17T12:02:00.649Z,3.70
2022-08-17T12:04:32.068Z,3.53
2022-08-17T12:07:05.217Z,3.80
2022-08-17T12:09:33.301Z,3.60
2022-08-17T12:12:12.609Z,4.10
2022-08-17T12:15:09.101Z,3.50
2022-08-17T12:17:41.003Z,4.00
2022-08-17T12:20:23.008Z,4.00
2022-08-17T12:23:12.681Z,4.38
2022-08-17T12:25:42.899Z,3.33
2022-08-17T12:28:26.502Z,3.08
2022-08-17T12:30:53.002Z,3.33
2022-08-17T12:33:25.490Z,3.40
2022-08-17T12:36:05.305Z,3.03
2022-08-17T12:38:34.570Z,3.60
2022-08-17T12:41:21.726Z,3.50
2022-08-17T12:44:05.408Z,3.70
2022-08-17T12:46:33.985Z,3.97
2022-08-17T12:49:19.629Z,3.60
2022-08-17T12:51:46.858Z,3.00
2022-08-17T12:54:22.014Z,3.28
2022-08-17T12:56:48.405Z,2.95
2022-08-17T12:59:29.596Z,3.20
2022-08-17T13:01:57.047Z,3.70
2022-08-17T13:04:24.124Z,3.85
2022-08-17T13:06:58.217Z,3.78
2022-08-17T13:09:35.576Z,3.20
2022-08-17T13:12:07.732Z,3.40
2022-08-17T13:14:35.111Z,3.40
2022-08-17T13:17:07.155Z,3.30
2022-08-17T13:19:45.801Z,3.63
2022-08-17T13:22:12.758Z,3.38
2022-08-17T13:24:48.958Z,3.25
2022-08-17T13:27:15.392Z,3.60
2022-08-17T13:29:44.788Z,3.60
2022-08-17T13:32:13.496Z,3.08
2022-08-17T13:35:07.820Z,3.30
2022-08-17T13:37:32.982Z,3.30
2022-08-17T13:39:59.510Z,3.53
2022-08-17T13:42:30.562Z,3.17
2022-08-17T13:44:57.223Z,3.20
2022-08-17T13:47:24.866Z,3.40
2022-08-17T13:49:51.741Z,3.50
2022-08-17T13:52:38.633Z,3.60
2022-08-17T13:55:07.880Z,3.13
2022-08-17T13:57:34.665Z,3.78
2022-08-17T14:00:11.597Z,3.70
2022-08-17T14:02:38.027Z,3.47
2022-08-17T14:05:06.310Z,3.83
2022-08-17T14:07:34.838Z,3.58
2022-08-17T14:10:01.404Z,3.42
2022-08-17T14:12:30.214Z,3.25
2022-08-17T14:14:56.776Z,3.50
2022-08-17T14:17:23.684Z,3.08
2022-08-17T14:19:50.936Z,3.03
2022-08-17T14:22:28.603Z,3.53
2022-08-17T14:24:56.736Z,3.20
2022-08-17T14:27:24.401Z,3.00
2022-08-17T14:29:50.903Z,2.63
2022-08-17T14:32:19.462Z,3.17
2022-08-17T14:34:46.600Z,3.25
2022-08-17T14:37:13.143Z,3.10
2022-08-17T14:39:39.795Z,3.50
2022-08-17T14:42:06.350Z,3.60
2022-08-17T14:44:32.793Z,3.33
2022-08-17T14:46:59.211Z,3.30
2022-08-17T14:49:25.971Z,3.00
2022-08-17T14:51:52.831Z,2.85
2022-08-17T14:54:33.581Z,3.20
2022-08-17T14:57:24.557Z,3.07
2022-08-17T14:59:50.678Z,3.38
2022-08-17T15:02:22.157Z,3.35
2022-08-17T15:05:00.668Z,3.60
2022-08-17T15:07:30.644Z,3.20
2022-08-17T15:09:58.777Z,2.97
2022-08-17T15:12:32.004Z,3.38
2022-08-17T15:15:00.603Z,3.40
2022-08-17T15:17:27.111Z,3.30
2022-08-17T15:20:15.120Z,3.20
2022-08-17T15:22:42.843Z,3.67
2022-08-17T15:25:10.490Z,3.30
2022-08-17T15:27:36.946Z,3.20
2022-08-17T15:30:04.878Z,3.47
2022-08-17T15:32:35.074Z,3.00
2022-08-17T15:35:02.513Z,3.63
2022-08-17T15:37:29.411Z,3.57
2022-08-17T15:39:55.902Z,3.50
2022-08-17T15:42:22.507Z,3.97
2022-08-17T15:44:49.302Z,3.80
2022-08-17T15:47:19.141Z,4.33
2022-08-17T15:49:46.478Z,3.50
2022-08-17T15:52:24.804Z,3.60
2022-08-17T15:54:52.147Z,4.27
2022-08-17T15:57:19.264Z,3.57
2022-08-17T15:59:46.168Z,4.20
2022-08-17T16:03:44.716Z,3.80
2022-08-17T16:05:28.512Z,3.90
2022-08-17T16:07:57.556Z,3.90
2022-08-17T16:10:34.610Z,3.87
2022-08-17T16:13:01.936Z,4.20
2022-08-17T16:15:31.130Z,4.30
2022-08-17T16:17:57.565Z,3.90
2022-08-17T16:20:23.955Z,3.70
2022-08-17T16:22:50.610Z,4.05
2022-08-17T16:25:19.427Z,3.93
2022-08-17T16:27:47.965Z,4.03
2022-08-17T16:30:17.742Z,4.03
2022-08-17T16:32:45.056Z,4.33
2022-08-17T16:35:14.286Z,3.80
2022-08-17T16:37:45.535Z,4.30
2022-08-17T16:40:12.680Z,4.00
2022-08-17T16:42:43.179Z,4.20
2022-08-17T16:45:18.368Z,4.07
2022-08-17T16:47:44.915Z,3.93
2022-08-17T16:50:13.445Z,4.03
2022-08-17T16:52:40.251Z,4.30
2022-08-17T16:55:07.710Z,4.23
2022-08-17T16:57:34.957Z,4.07
2022-08-17T17:00:01.376Z,4.17
2022-08-17T17:02:30.292Z,4.20
2022-08-17T17:05:00.014Z,4.03
2022-08-17T17:07:45.329Z,3.90
2022-08-17T17:10:14.693Z,4.40
2022-08-17T17:13:01.414Z,4.70
2022-08-17T17:15:31.914Z,4.63
2022-08-17T17:18:07.230Z,4.97
2022-08-17T17:20:42.482Z,4.83
2022-08-17T17:23:08.898Z,5.00
2022-08-17T17:25:45.334Z,4.67
2022-08-17T17:28:43.490Z,5.03
2022-08-17T17:31:14.509Z,4.80
2022-08-17T17:33:50.558Z,4.60
2022-08-17T17:36:29.359Z,5.20
2022-08-17T17:39:00.027Z,4.93
2022-08-17T17:41:29.504Z,5.50
2022-08-17T17:44:01.885Z,5.20
2022-08-17T17:46:34.374Z,5.10
2022-08-17T17:49:00.956Z,4.83
2022-08-17T17:52:08.500Z,5.53
2022-08-17T17:54:29.373Z,5.37
2022-08-17T17:56:58.799Z,4.90
2022-08-17T17:59:47.406Z,5.67
2022-08-17T18:02:41.537Z,4.73
2022-08-17T18:05:26.830Z,5.50
2022-08-17T18:07:58.261Z,5.37
2022-08-17T18:10:30.104Z,5.20
2022-08-17T18:13:00.334Z,5.30
2022-08-17T18:15:29.599Z,5.20
2022-08-17T18:18:14.385Z,5.20
2022-08-17T18:20:46.727Z,5.37
2022-08-17T18:23:25.541Z,5.10
2022-08-17T18:25:56.420Z,5.50
2022-08-17T18:28:31.423Z,5.50
2022-08-17T18:31:03.640Z,4.90
2022-08-17T18:33:30.134Z,5.10
2022-08-17T18:35:59.235Z,5.60
2022-08-17T18:38:30.943Z,5.20
2022-08-17T18:40:59.084Z,5.00
2022-08-17T18:43:28.103Z,5.30
2022-08-17T18:46:28.765Z,5.27
2022-08-17T18:49:00.692Z,5.00
2022-08-17T18:51:40.641Z,5.50
2022-08-17T18:54:19.974Z,5.13
2022-08-17T18:56:49.403Z,4.83
2022-08-17T18:59:18.638Z,5.47
2022-08-17T19:02:03.222Z,5.57
2022-08-17T19:04:52.683Z,5.33
2022-08-17T19:07:19.068Z,5.00
2022-08-17T19:09:48.339Z,5.47
2022-08-17T19:12:34.965Z,5.53
2022-08-17T19:15:02.428Z,5.30
2022-08-17T19:17:33.079Z,5.70
2022-08-17T19:20:02.518Z,5.77
2022-08-17T19:22:52.274Z,6.20
2022-08-17T19:25:22.579Z,5.60
2022-08-17T19:27:57.910Z,5.60
2022-08-17T19:30:24.667Z,5.87
2022-08-17T19:32:51.359Z,5.60
2022-08-17T19:35:20.139Z,5.83
2022-08-17T19:37:49.448Z,5.87
2022-08-17T19:40:35.014Z,5.73
2022-08-17T19:43:21.522Z,5.63
2022-08-17T19:45:50.962Z,6.03
2022-08-17T19:48:25.684Z,6.40
2022-08-17T19:51:01.162Z,6.40
2022-08-17T19:54:03.933Z,6.07
2022-08-17T19:56:29.468Z,6.50
2022-08-17T19:58:58.966Z,6.03
2022-08-17T20:01:38.738Z,6.40
2022-08-17T20:04:12.416Z,6.90
2022-08-17T20:06:40.407Z,6.47
2022-08-17T20:09:15.037Z,6.00
2022-08-17T20:11:46.585Z,6.53
2022-08-17T20:14:20.325Z,6.20
2022-08-17T20:16:46.931Z,6.40
2022-08-17T20:19:16.405Z,6.47
2022-08-17T20:21:50.357Z,6.40
2022-08-17T20:24:28.266Z,5.83
2022-08-17T20:27:16.264Z,6.20
2022-08-17T20:30:05.824Z,6.57
2022-08-17T20:32:35.531Z,6.17
2022-08-17T20:35:06.325Z,6.50
2022-08-17T20:37:33.972Z,6.20
2022-08-17T20:40:00.524Z,5.90
2022-08-17T20:42:27.830Z,6.50
2022-08-17T20:44:57.906Z,6.50
2022-08-17T20:47:28.244Z,6.73
2022-08-17T20:49:56.799Z,5.83
2022-08-17T20:52:35.336Z,6.07
2022-08-17T20:55:02.894Z,6.70
2022-08-17T20:57:32.250Z,6.43
2022-08-17T21:00:03.095Z,6.97
2022-08-17T21:02:29.577Z,6.83
2022-08-17T21:04:56.843Z,6.40
2022-08-17T21:07:42.816Z,7.13
2022-08-17T21:10:15.871Z,6.87
2022-08-17T21:13:12.321Z,7.43
2022-08-17T21:15:39.079Z,7.10
2022-08-17T21:18:18.374Z,6.63
2022-08-17T21:21:01.612Z,6.47
2022-08-17T21:23:35.892Z,6.40
2022-08-17T21:26:08.391Z,7.17
2022-08-17T21:28:37.526Z,7.10
2022-08-17T21:31:28.893Z,6.50
2022-08-17T21:34:17.607Z,6.70
2022-08-17T21:36:44.714Z,6.07
2022-08-17T21:39:15.535Z,6.47
2022-08-17T21:41:53.024Z,6.70
2022-08-17T21:44:21.525Z,7.23
2022-08-17T21:46:50.162Z,7.00
2022-08-17T21:49:18.203Z,7.10
2022-08-17T21:51:49.842Z,6.73
2022-08-17T21:54:35.414Z,6.57
2022-08-17T21:57:04.004Z,6.77
2022-08-17T21:59:32.890Z,6.77
2022-08-17T22:02:00.540Z,6.50
2022-08-17T22:04:26.952Z,6.87
2022-08-17T22:06:57.377Z,6.90
2022-08-17T22:09:35.673Z,7.30
2022-08-17T22:12:07.803Z,8.13
2022-08-17T22:14:52.935Z,7.20
2022-08-17T22:17:20.523Z,7.50
2022-08-17T22:19:49.064Z,7.60
2022-08-17T22:22:26.338Z,7.43
2022-08-17T22:24:57.258Z,7.83
2022-08-17T22:27:43.545Z,7.17
2022-08-17T22:30:27.494Z,7.07
2022-08-17T22:32:54.569Z,6.80
2022-08-17T22:35:27.184Z,7.57
2022-08-17T22:37:53.720Z,7.13
2022-08-17T22:40:31.706Z,7.43
2022-08-17T22:42:58.759Z,7.93
2022-08-17T22:45:26.221Z,7.87
2022-08-17T22:47:55.553Z,7.37
2022-08-17T22:50:25.069Z,7.10
2022-08-17T22:53:15.929Z,7.77
2022-08-17T22:56:08.491Z,8.00
2022-08-17T22:58:58.636Z,7.30
2022-08-17T23:01:31.450Z,7.23
2022-08-17T23:03:57.888Z,7.50
2022-08-17T23:06:24.519Z,6.83
2022-08-17T23:08:54.845Z,7.37
2022-08-17T23:11:36.646Z,8.17
2022-08-17T23:14:13.706Z,7.93
2022-08-17T23:16:43.050Z,7.43
2022-08-17T23:19:10.323Z,7.90
2022-08-17T23:21:37.255Z,7.13
2022-08-17T23:24:08.869Z,7.30
2022-08-17T23:26:39.252Z,7.30
2022-08-17T23:29:06.694Z,8.10
2022-08-17T23:31:34.703Z,7.63
2022-08-17T23:34:02.039Z,7.60
2022-08-17T23:36:29.417Z,7.93
2022-08-17T23:38:56.446Z,7.40
2022-08-17T23:41:23.412Z,7.90
2022-08-17T23:43:51.560Z,7.57
2022-08-17T23:46:18.351Z,7.53
2022-08-17T23:48:44.730Z,7.63
2022-08-17T23:51:13.591Z,8.40
2022-08-17T23:53:45.097Z,7.20
2022-08-17T23:56:11.982Z,7.77
2022-08-17T23:58:39.966Z,7.90
